sensor_id;sensor_type;location;lat;lon;timestamp;P1;durP1;ratioP1;P2;durP2;ratioP2
11228;SDS011;5671;47.936;8.716;2023-05-07T00:00:28;2.27;;;1.30;;
11228;SDS011;5671;47.936;8.716;2023-05-07T00:02:55;1.67;;;1.47;;
11228;SDS011;5671;47.936;8.716;2023-05-07T00:05:22;2.73;;;1.50;;
11228;SDS011;5671;47.936;8.716;2023-05-07T00:07:49;1.83;;;1.40;;
11228;SDS011;5671;47.936;8.716;2023-05-07T00:10:17;1.83;;;1.30;;
11228;SDS011;5671;47.936;8.716;2023-05-07T00:12:45;6.07;;;1.50;;
11228;SDS011;5671;47.936;8.716;2023-05-07T00:15:11;1.97;;;1.40;;
11228;SDS011;5671;47.936;8.716;2023-05-07T00:17:39;2.23;;;1.60;;
11228;SDS011;5671;47.936;8.716;2023-05-07T00:20:06;2.43;;;1.47;;
11228;SDS011;5671;47.936;8.716;2023-05-07T00:22:34;1.37;;;1.27;;
11228;SDS011;5671;47.936;8.716;2023-05-07T00:25:01;3.47;;;1.87;;
11228;SDS011;5671;47.936;8.716;2023-05-07T00:27:28;1.60;;;1.50;;
11228;SDS011;5671;47.936;8.716;2023-05-07T00:29:54;2.20;;;1.20;;
11228;SDS011;5671;47.936;8.716;2023-05-07T00:32:21;3.57;;;1.23;;
11228;SDS011;5671;47.936;8.716;2023-05-07T00:34:49;1.63;;;1.30;;
11228;SDS011;5671;47.936;8.716;2023-05-07T00:37:16;2.23;;;1.50;;
11228;SDS011;5671;47.936;8.716;2023-05-07T00:39:43;3.70;;;1.30;;
11228;SDS011;5671;47.936;8.716;2023-05-07T00:42:10;3.37;;;1.40;;
11228;SDS011;5671;47.936;8.716;2023-05-07T00:44:37;1.37;;;1.27;;
11228;SDS011;5671;47.936;8.716;2023-05-07T00:47:04;2.63;;;1.67;;
11228;SDS011;5671;47.936;8.716;2023-05-07T00:49:35;5.57;;;1.57;;
11228;SDS011;5671;47.936;8.716;2023-05-07T00:52:07;2.40;;;1.60;;
11228;SDS011;5671;47.936;8.716;2023-05-07T00:54:35;2.73;;;1.30;;
11228;SDS011;5671;47.936;8.716;2023-05-07T00:57:02;1.93;;;1.23;;
11228;SDS011;5671;47.936;8.716;2023-05-07T00:59:30;4.03;;;1.40;;
11228;SDS011;5671;47.936;8.716;2023-05-07T01:01:57;1.77;;;1.33;;
11228;SDS011;5671;47.936;8.716;2023-05-07T01:04:25;2.97;;;1.57;;
11228;SDS011;5671;47.936;8.716;2023-05-07T01:06:52;1.50;;;1.37;;
11228;SDS011;5671;47.936;8.716;2023-05-07T01:09:22;1.87;;;1.40;;
11228;SDS011;5671;47.936;8.716;2023-05-07T01:11:50;2.63;;;1.60;;
11228;SDS011;5671;47.936;8.716;2023-05-07T01:14:18;1.70;;;1.60;;
11228;SDS011;5671;47.936;8.716;2023-05-07T01:16:46;1.70;;;1.60;;
11228;SDS011;5671;47.936;8.716;2023-05-07T01:19:13;3.00;;;1.40;;
11228;SDS011;5671;47.936;8.716;2023-05-07T01:21:45;5.00;;;1.53;;
11228;SDS011;5671;47.936;8.716;2023-05-07T01:24:15;4.37;;;1.83;;
11228;SDS011;5671;47.936;8.716;2023-05-07T01:26:42;3.67;;;1.60;;
11228;SDS011;5671;47.936;8.716;2023-05-07T01:29:10;4.00;;;1.30;;
11228;SDS011;5671;47.936;8.716;2023-05-07T01:31:37;1.97;;;1.50;;
11228;SDS011;5671;47.936;8.716;2023-05-07T01:34:06;3.23;;;1.70;;
11228;SDS011;5671;47.936;8.716;2023-05-07T01:36:34;2.43;;;1.30;;
11228;SDS011;5671;47.936;8.716;2023-05-07T01:39:03;3.43;;;1.40;;
11228;SDS011;5671;47.936;8.716;2023-05-07T01:41:31;2.37;;;1.37;;
11228;SDS011;5671;47.936;8.716;2023-05-07T01:43:58;1.50;;;1.40;;
11228;SDS011;5671;47.936;8.716;2023-05-07T01:46:26;5.63;;;1.60;;
11228;SDS011;5671;47.936;8.716;2023-05-07T01:48:53;2.23;;;1.43;;
11228;SDS011;5671;47.936;8.716;2023-05-07T01:51:20;1.60;;;1.50;;
11228;SDS011;5671;47.936;8.716;2023-05-07T01:53:47;1.43;;;1.30;;
11228;SDS011;5671;47.936;8.716;2023-05-07T01:56:16;4.53;;;1.50;;
11228;SDS011;5671;47.936;8.716;2023-05-07T01:58:45;1.50;;;1.37;;
11228;SDS011;5671;47.936;8.716;2023-05-07T02:01:12;2.33;;;1.30;;
11228;SDS011;5671;47.936;8.716;2023-05-07T02:03:39;1.20;;;1.10;;
11228;SDS011;5671;47.936;8.716;2023-05-07T02:06:06;4.40;;;1.70;;
11228;SDS011;5671;47.936;8.716;2023-05-07T02:08:33;1.80;;;1.30;;
11228;SDS011;5671;47.936;8.716;2023-05-07T02:11:00;3.47;;;1.40;;
11228;SDS011;5671;47.936;8.716;2023-05-07T02:13:28;2.53;;;1.33;;
11228;SDS011;5671;47.936;8.716;2023-05-07T02:15:57;1.53;;;1.30;;
11228;SDS011;5671;47.936;8.716;2023-05-07T02:18:24;1.43;;;1.30;;
11228;SDS011;5671;47.936;8.716;2023-05-07T02:20:51;3.80;;;1.60;;
11228;SDS011;5671;47.936;8.716;2023-05-07T02:23:18;2.50;;;1.40;;
11228;SDS011;5671;47.936;8.716;2023-05-07T02:25:45;2.40;;;1.60;;
11228;SDS011;5671;47.936;8.716;2023-05-07T02:28:12;2.60;;;1.60;;
11228;SDS011;5671;47.936;8.716;2023-05-07T02:30:39;3.10;;;1.63;;
11228;SDS011;5671;47.936;8.716;2023-05-07T02:33:07;3.20;;;1.73;;
11228;SDS011;5671;47.936;8.716;2023-05-07T02:35:34;1.67;;;1.57;;
11228;SDS011;5671;47.936;8.716;2023-05-07T02:38:01;3.40;;;2.03;;
11228;SDS011;5671;47.936;8.716;2023-05-07T02:40:28;2.93;;;1.87;;
11228;SDS011;5671;47.936;8.716;2023-05-07T02:42:58;1.87;;;1.67;;
11228;SDS011;5671;47.936;8.716;2023-05-07T02:45:25;4.10;;;1.43;;
11228;SDS011;5671;47.936;8.716;2023-05-07T02:47:52;2.33;;;1.90;;
11228;SDS011;5671;47.936;8.716;2023-05-07T02:50:21;3.83;;;1.60;;
11228;SDS011;5671;47.936;8.716;2023-05-07T02:52:48;5.13;;;2.00;;
11228;SDS011;5671;47.936;8.716;2023-05-07T02:55:15;2.10;;;1.60;;
11228;SDS011;5671;47.936;8.716;2023-05-07T02:57:42;1.50;;;1.37;;
11228;SDS011;5671;47.936;8.716;2023-05-07T03:00:12;2.47;;;1.37;;
11228;SDS011;5671;47.936;8.716;2023-05-07T03:02:40;3.43;;;1.37;;
11228;SDS011;5671;47.936;8.716;2023-05-07T03:05:07;2.97;;;1.50;;
11228;SDS011;5671;47.936;8.716;2023-05-07T03:07:36;1.33;;;1.27;;
11228;SDS011;5671;47.936;8.716;2023-05-07T03:10:03;4.47;;;1.57;;
11228;SDS011;5671;47.936;8.716;2023-05-07T03:12:30;3.80;;;1.43;;
11228;SDS011;5671;47.936;8.716;2023-05-07T03:14:57;3.07;;;1.40;;
11228;SDS011;5671;47.936;8.716;2023-05-07T03:17:24;4.33;;;1.40;;
11228;SDS011;5671;47.936;8.716;2023-05-07T03:19:51;3.43;;;1.87;;
11228;SDS011;5671;47.936;8.716;2023-05-07T03:22:17;2.27;;;1.43;;
11228;SDS011;5671;47.936;8.716;2023-05-07T03:24:46;7.00;;;1.63;;
11228;SDS011;5671;47.936;8.716;2023-05-07T03:27:12;2.37;;;1.37;;
11228;SDS011;5671;47.936;8.716;2023-05-07T03:29:39;1.57;;;1.20;;
11228;SDS011;5671;47.936;8.716;2023-05-07T03:32:06;1.53;;;1.43;;
11228;SDS011;5671;47.936;8.716;2023-05-07T03:34:33;1.67;;;1.50;;
11228;SDS011;5671;47.936;8.716;2023-05-07T03:37:00;2.73;;;1.57;;
11228;SDS011;5671;47.936;8.716;2023-05-07T03:39:26;2.80;;;1.50;;
11228;SDS011;5671;47.936;8.716;2023-05-07T03:41:54;1.70;;;1.50;;
11228;SDS011;5671;47.936;8.716;2023-05-07T03:44:21;1.83;;;1.70;;
11228;SDS011;5671;47.936;8.716;2023-05-07T03:46:48;2.20;;;1.60;;
11228;SDS011;5671;47.936;8.716;2023-05-07T03:49:15;2.37;;;1.60;;
11228;SDS011;5671;47.936;8.716;2023-05-07T03:51:42;4.90;;;1.77;;
11228;SDS011;5671;47.936;8.716;2023-05-07T03:54:08;1.43;;;1.37;;
11228;SDS011;5671;47.936;8.716;2023-05-07T03:56:35;1.90;;;1.60;;
11228;SDS011;5671;47.936;8.716;2023-05-07T03:59:03;1.20;;;1.20;;
11228;SDS011;5671;47.936;8.716;2023-05-07T04:01:30;2.10;;;1.60;;
11228;SDS011;5671;47.936;8.716;2023-05-07T04:03:57;2.10;;;1.50;;
11228;SDS011;5671;47.936;8.716;2023-05-07T04:06:24;1.57;;;1.50;;
11228;SDS011;5671;47.936;8.716;2023-05-07T04:08:51;1.93;;;1.63;;
11228;SDS011;5671;47.936;8.716;2023-05-07T04:11:17;1.60;;;1.43;;
11228;SDS011;5671;47.936;8.716;2023-05-07T04:13:45;3.90;;;1.60;;
11228;SDS011;5671;47.936;8.716;2023-05-07T04:16:13;1.40;;;1.30;;
11228;SDS011;5671;47.936;8.716;2023-05-07T04:18:40;2.60;;;1.47;;
11228;SDS011;5671;47.936;8.716;2023-05-07T04:21:13;1.83;;;1.57;;
11228;SDS011;5671;47.936;8.716;2023-05-07T04:23:40;3.73;;;1.50;;
11228;SDS011;5671;47.936;8.716;2023-05-07T04:26:07;3.20;;;1.60;;
11228;SDS011;5671;47.936;8.716;2023-05-07T04:28:34;2.07;;;1.60;;
11228;SDS011;5671;47.936;8.716;2023-05-07T04:31:01;3.67;;;1.70;;
11228;SDS011;5671;47.936;8.716;2023-05-07T04:33:29;1.47;;;1.37;;
11228;SDS011;5671;47.936;8.716;2023-05-07T04:35:56;4.47;;;2.00;;
11228;SDS011;5671;47.936;8.716;2023-05-07T04:38:23;1.40;;;1.30;;
11228;SDS011;5671;47.936;8.716;2023-05-07T04:40:50;4.10;;;2.43;;
11228;SDS011;5671;47.936;8.716;2023-05-07T04:43:17;4.87;;;2.73;;
11228;SDS011;5671;47.936;8.716;2023-05-07T04:45:44;7.73;;;1.70;;
11228;SDS011;5671;47.936;8.716;2023-05-07T04:48:10;2.90;;;1.90;;
11228;SDS011;5671;47.936;8.716;2023-05-07T04:50:40;2.30;;;2.10;;
11228;SDS011;5671;47.936;8.716;2023-05-07T04:53:07;2.00;;;1.80;;
11228;SDS011;5671;47.936;8.716;2023-05-07T04:55:34;1.87;;;1.43;;
11228;SDS011;5671;47.936;8.716;2023-05-07T04:58:01;1.80;;;1.70;;
11228;SDS011;5671;47.936;8.716;2023-05-07T05:00:28;2.13;;;1.83;;
11228;SDS011;5671;47.936;8.716;2023-05-07T05:02:54;2.10;;;2.00;;
11228;SDS011;5671;47.936;8.716;2023-05-07T05:05:21;4.10;;;1.57;;
11228;SDS011;5671;47.936;8.716;2023-05-07T05:07:49;1.73;;;1.50;;
11228;SDS011;5671;47.936;8.716;2023-05-07T05:10:16;3.70;;;1.70;;
11228;SDS011;5671;47.936;8.716;2023-05-07T05:12:43;2.73;;;1.57;;
11228;SDS011;5671;47.936;8.716;2023-05-07T05:15:10;1.73;;;1.60;;
11228;SDS011;5671;47.936;8.716;2023-05-07T05:17:37;2.90;;;1.77;;
11228;SDS011;5671;47.936;8.716;2023-05-07T05:20:05;3.40;;;1.77;;
11228;SDS011;5671;47.936;8.716;2023-05-07T05:22:32;4.10;;;1.93;;
11228;SDS011;5671;47.936;8.716;2023-05-07T05:25:00;2.40;;;2.10;;
11228;SDS011;5671;47.936;8.716;2023-05-07T05:27:27;1.53;;;1.47;;
11228;SDS011;5671;47.936;8.716;2023-05-07T05:29:55;2.07;;;1.93;;
11228;SDS011;5671;47.936;8.716;2023-05-07T05:32:22;1.63;;;1.53;;
11228;SDS011;5671;47.936;8.716;2023-05-07T05:34:48;2.33;;;2.10;;
11228;SDS011;5671;47.936;8.716;2023-05-07T05:37:16;2.53;;;2.00;;
11228;SDS011;5671;47.936;8.716;2023-05-07T05:39:43;2.57;;;1.77;;
11228;SDS011;5671;47.936;8.716;2023-05-07T05:42:11;2.00;;;1.90;;
11228;SDS011;5671;47.936;8.716;2023-05-07T05:44:37;4.63;;;2.10;;
11228;SDS011;5671;47.936;8.716;2023-05-07T05:47:04;2.90;;;2.03;;
11228;SDS011;5671;47.936;8.716;2023-05-07T05:49:31;3.27;;;2.17;;
11228;SDS011;5671;47.936;8.716;2023-05-07T05:51:58;1.67;;;1.57;;
11228;SDS011;5671;47.936;8.716;2023-05-07T05:54:25;2.53;;;2.33;;
11228;SDS011;5671;47.936;8.716;2023-05-07T05:56:52;2.77;;;1.90;;
11228;SDS011;5671;47.936;8.716;2023-05-07T05:59:20;2.07;;;1.83;;
11228;SDS011;5671;47.936;8.716;2023-05-07T06:01:47;2.83;;;2.10;;
11228;SDS011;5671;47.936;8.716;2023-05-07T06:04:14;6.00;;;2.00;;
11228;SDS011;5671;47.936;8.716;2023-05-07T06:06:41;1.50;;;1.40;;
11228;SDS011;5671;47.936;8.716;2023-05-07T06:09:08;2.07;;;1.90;;
11228;SDS011;5671;47.936;8.716;2023-05-07T06:11:34;3.50;;;1.90;;
11228;SDS011;5671;47.936;8.716;2023-05-07T06:14:01;2.37;;;1.87;;
11228;SDS011;5671;47.936;8.716;2023-05-07T06:16:29;2.47;;;1.83;;
11228;SDS011;5671;47.936;8.716;2023-05-07T06:18:56;2.47;;;2.03;;
11228;SDS011;5671;47.936;8.716;2023-05-07T06:21:23;3.20;;;2.37;;
11228;SDS011;5671;47.936;8.716;2023-05-07T06:23:50;2.07;;;1.97;;
11228;SDS011;5671;47.936;8.716;2023-05-07T06:26:17;2.50;;;2.20;;
11228;SDS011;5671;47.936;8.716;2023-05-07T06:28:44;2.50;;;2.30;;
11228;SDS011;5671;47.936;8.716;2023-05-07T06:31:11;4.63;;;2.57;;
11228;SDS011;5671;47.936;8.716;2023-05-07T06:33:40;3.13;;;2.30;;
11228;SDS011;5671;47.936;8.716;2023-05-07T06:36:07;2.47;;;2.27;;
11228;SDS011;5671;47.936;8.716;2023-05-07T06:38:34;4.57;;;2.10;;
11228;SDS011;5671;47.936;8.716;2023-05-07T06:41:01;2.03;;;1.93;;
11228;SDS011;5671;47.936;8.716;2023-05-07T06:43:28;4.43;;;2.83;;
11228;SDS011;5671;47.936;8.716;2023-05-07T06:45:55;5.23;;;2.60;;
11228;SDS011;5671;47.936;8.716;2023-05-07T06:48:22;2.87;;;2.50;;
11228;SDS011;5671;47.936;8.716;2023-05-07T06:50:50;2.60;;;2.37;;
11228;SDS011;5671;47.936;8.716;2023-05-07T06:53:17;3.43;;;2.20;;
11228;SDS011;5671;47.936;8.716;2023-05-07T06:55:43;3.13;;;2.07;;
11228;SDS011;5671;47.936;8.716;2023-05-07T06:58:10;4.40;;;2.17;;
11228;SDS011;5671;47.936;8.716;2023-05-07T07:00:37;3.90;;;1.93;;
11228;SDS011;5671;47.936;8.716;2023-05-07T07:03:05;3.00;;;2.40;;
11228;SDS011;5671;47.936;8.716;2023-05-07T07:05:32;4.03;;;2.50;;
11228;SDS011;5671;47.936;8.716;2023-05-07T07:08:00;2.70;;;2.47;;
11228;SDS011;5671;47.936;8.716;2023-05-07T07:10:27;3.47;;;2.60;;
11228;SDS011;5671;47.936;8.716;2023-05-07T07:12:54;2.23;;;2.03;;
11228;SDS011;5671;47.936;8.716;2023-05-07T07:15:21;5.57;;;2.10;;
11228;SDS011;5671;47.936;8.716;2023-05-07T07:17:50;3.60;;;2.37;;
11228;SDS011;5671;47.936;8.716;2023-05-07T07:20:16;2.67;;;2.23;;
11228;SDS011;5671;47.936;8.716;2023-05-07T07:22:43;2.90;;;2.60;;
11228;SDS011;5671;47.936;8.716;2023-05-07T07:25:11;3.27;;;2.53;;
11228;SDS011;5671;47.936;8.716;2023-05-07T07:27:38;3.30;;;2.50;;
11228;SDS011;5671;47.936;8.716;2023-05-07T07:30:05;4.10;;;2.83;;
11228;SDS011;5671;47.936;8.716;2023-05-07T07:32:34;5.10;;;2.93;;
11228;SDS011;5671;47.936;8.716;2023-05-07T07:35:01;7.07;;;3.60;;
11228;SDS011;5671;47.936;8.716;2023-05-07T07:37:27;2.90;;;2.70;;
11228;SDS011;5671;47.936;8.716;2023-05-07T07:39:54;2.57;;;2.37;;
11228;SDS011;5671;47.936;8.716;2023-05-07T07:42:23;3.40;;;2.50;;
11228;SDS011;5671;47.936;8.716;2023-05-07T07:44:50;2.93;;;2.30;;
11228;SDS011;5671;47.936;8.716;2023-05-07T07:47:16;3.60;;;3.00;;
11228;SDS011;5671;47.936;8.716;2023-05-07T07:49:43;2.90;;;2.60;;
11228;SDS011;5671;47.936;8.716;2023-05-07T07:52:10;3.47;;;2.47;;
11228;SDS011;5671;47.936;8.716;2023-05-07T07:54:37;2.93;;;2.63;;
11228;SDS011;5671;47.936;8.716;2023-05-07T07:57:04;3.33;;;2.50;;
11228;SDS011;5671;47.936;8.716;2023-05-07T07:59:32;3.77;;;2.90;;
11228;SDS011;5671;47.936;8.716;2023-05-07T08:01:59;3.83;;;2.90;;
11228;SDS011;5671;47.936;8.716;2023-05-07T08:04:26;4.53;;;2.90;;
11228;SDS011;5671;47.936;8.716;2023-05-07T08:06:53;4.13;;;2.93;;
11228;SDS011;5671;47.936;8.716;2023-05-07T08:09:21;3.63;;;3.30;;
11228;SDS011;5671;47.936;8.716;2023-05-07T08:11:47;3.40;;;2.57;;
11228;SDS011;5671;47.936;8.716;2023-05-07T08:14:14;3.73;;;3.13;;
11228;SDS011;5671;47.936;8.716;2023-05-07T08:16:43;3.47;;;3.13;;
11228;SDS011;5671;47.936;8.716;2023-05-07T08:19:09;3.17;;;2.77;;
11228;SDS011;5671;47.936;8.716;2023-05-07T08:21:38;4.37;;;2.93;;
11228;SDS011;5671;47.936;8.716;2023-05-07T08:24:05;3.83;;;2.93;;
11228;SDS011;5671;47.936;8.716;2023-05-07T08:26:32;4.40;;;3.07;;
11228;SDS011;5671;47.936;8.716;2023-05-07T08:28:59;2.70;;;2.50;;
11228;SDS011;5671;47.936;8.716;2023-05-07T08:31:25;3.33;;;2.90;;
11228;SDS011;5671;47.936;8.716;2023-05-07T08:33:53;2.80;;;2.20;;
11228;SDS011;5671;47.936;8.716;2023-05-07T08:36:20;3.50;;;3.20;;
11228;SDS011;5671;47.936;8.716;2023-05-07T08:38:47;3.90;;;3.13;;
11228;SDS011;5671;47.936;8.716;2023-05-07T08:41:14;4.13;;;3.40;;
11228;SDS011;5671;47.936;8.716;2023-05-07T08:43:41;4.43;;;2.90;;
11228;SDS011;5671;47.936;8.716;2023-05-07T08:46:11;3.67;;;3.10;;
11228;SDS011;5671;47.936;8.716;2023-05-07T08:48:44;3.93;;;2.87;;
11228;SDS011;5671;47.936;8.716;2023-05-07T08:51:13;3.77;;;2.80;;
11228;SDS011;5671;47.936;8.716;2023-05-07T08:53:42;5.47;;;2.50;;
11228;SDS011;5671;47.936;8.716;2023-05-07T08:56:09;3.50;;;3.17;;
11228;SDS011;5671;47.936;8.716;2023-05-07T08:58:36;8.17;;;2.80;;
11228;SDS011;5671;47.936;8.716;2023-05-07T09:01:03;3.90;;;2.70;;
11228;SDS011;5671;47.936;8.716;2023-05-07T09:03:34;3.37;;;2.97;;
11228;SDS011;5671;47.936;8.716;2023-05-07T09:06:02;3.10;;;2.80;;
11228;SDS011;5671;47.936;8.716;2023-05-07T09:08:32;4.13;;;2.67;;
11228;SDS011;5671;47.936;8.716;2023-05-07T09:10:59;7.77;;;3.23;;
11228;SDS011;5671;47.936;8.716;2023-05-07T09:13:27;3.30;;;3.00;;
11228;SDS011;5671;47.936;8.716;2023-05-07T09:15:54;5.03;;;4.20;;
11228;SDS011;5671;47.936;8.716;2023-05-07T09:18:23;4.20;;;3.80;;
11228;SDS011;5671;47.936;8.716;2023-05-07T09:20:50;3.63;;;2.70;;
11228;SDS011;5671;47.936;8.716;2023-05-07T09:23:17;2.97;;;2.67;;
11228;SDS011;5671;47.936;8.716;2023-05-07T09:25:45;3.50;;;3.17;;
11228;SDS011;5671;47.936;8.716;2023-05-07T09:28:12;4.53;;;3.10;;
11228;SDS011;5671;47.936;8.716;2023-05-07T09:30:39;2.83;;;2.63;;
11228;SDS011;5671;47.936;8.716;2023-05-07T09:33:06;5.87;;;3.60;;
11228;SDS011;5671;47.936;8.716;2023-05-07T09:35:32;4.90;;;3.50;;
11228;SDS011;5671;47.936;8.716;2023-05-07T09:38:00;4.97;;;3.13;;
11228;SDS011;5671;47.936;8.716;2023-05-07T09:40:28;3.23;;;2.90;;
11228;SDS011;5671;47.936;8.716;2023-05-07T09:43:01;3.47;;;3.00;;
11228;SDS011;5671;47.936;8.716;2023-05-07T09:45:36;4.27;;;3.00;;
11228;SDS011;5671;47.936;8.716;2023-05-07T09:48:04;4.83;;;3.27;;
11228;SDS011;5671;47.936;8.716;2023-05-07T09:50:32;3.70;;;2.80;;
11228;SDS011;5671;47.936;8.716;2023-05-07T09:53:02;6.57;;;3.17;;
11228;SDS011;5671;47.936;8.716;2023-05-07T09:55:30;5.03;;;3.50;;
11228;SDS011;5671;47.936;8.716;2023-05-07T09:57:58;4.00;;;3.30;;
11228;SDS011;5671;47.936;8.716;2023-05-07T10:00:27;4.07;;;3.70;;
11228;SDS011;5671;47.936;8.716;2023-05-07T10:02:55;4.83;;;3.07;;
11228;SDS011;5671;47.936;8.716;2023-05-07T10:05:23;3.67;;;3.37;;
11228;SDS011;5671;47.936;8.716;2023-05-07T10:07:51;3.10;;;2.33;;
11228;SDS011;5671;47.936;8.716;2023-05-07T10:10:19;4.77;;;3.10;;
11228;SDS011;5671;47.936;8.716;2023-05-07T10:12:47;4.53;;;3.37;;
11228;SDS011;5671;47.936;8.716;2023-05-07T10:15:16;4.20;;;3.10;;
11228;SDS011;5671;47.936;8.716;2023-05-07T10:17:43;3.80;;;3.20;;
11228;SDS011;5671;47.936;8.716;2023-05-07T10:20:10;5.07;;;3.30;;
11228;SDS011;5671;47.936;8.716;2023-05-07T10:22:38;3.43;;;3.13;;
11228;SDS011;5671;47.936;8.716;2023-05-07T10:25:09;3.23;;;2.87;;
11228;SDS011;5671;47.936;8.716;2023-05-07T10:27:42;4.40;;;3.60;;
11228;SDS011;5671;47.936;8.716;2023-05-07T10:30:13;3.30;;;2.87;;
11228;SDS011;5671;47.936;8.716;2023-05-07T10:32:50;5.43;;;3.10;;
11228;SDS011;5671;47.936;8.716;2023-05-07T10:35:21;4.97;;;2.77;;
11228;SDS011;5671;47.936;8.716;2023-05-07T10:37:51;3.47;;;2.37;;
11228;SDS011;5671;47.936;8.716;2023-05-07T10:40:19;3.80;;;2.63;;
11228;SDS011;5671;47.936;8.716;2023-05-07T10:42:53;4.00;;;2.73;;
11228;SDS011;5671;47.936;8.716;2023-05-07T10:45:23;4.90;;;2.63;;
11228;SDS011;5671;47.936;8.716;2023-05-07T10:48:10;3.10;;;2.80;;
11228;SDS011;5671;47.936;8.716;2023-05-07T10:53:44;3.37;;;2.90;;
11228;SDS011;5671;47.936;8.716;2023-05-07T10:56:26;4.00;;;2.90;;
11228;SDS011;5671;47.936;8.716;2023-05-07T10:58:53;4.40;;;2.67;;
11228;SDS011;5671;47.936;8.716;2023-05-07T11:04:19;2.60;;;2.40;;
11228;SDS011;5671;47.936;8.716;2023-05-07T11:09:56;2.60;;;2.40;;
11228;SDS011;5671;47.936;8.716;2023-05-07T11:12:46;6.60;;;2.90;;
11228;SDS011;5671;47.936;8.716;2023-05-07T11:15:13;3.77;;;2.20;;
11228;SDS011;5671;47.936;8.716;2023-05-07T11:17:53;4.03;;;2.23;;
11228;SDS011;5671;47.936;8.716;2023-05-07T11:20:21;3.37;;;2.67;;
11228;SDS011;5671;47.936;8.716;2023-05-07T11:26:12;2.73;;;2.53;;
11228;SDS011;5671;47.936;8.716;2023-05-07T11:28:40;3.30;;;2.20;;
11228;SDS011;5671;47.936;8.716;2023-05-07T11:31:09;5.07;;;2.50;;
11228;SDS011;5671;47.936;8.716;2023-05-07T11:33:38;3.57;;;2.53;;
11228;SDS011;5671;47.936;8.716;2023-05-07T11:36:05;2.57;;;1.87;;
11228;SDS011;5671;47.936;8.716;2023-05-07T11:38:34;8.13;;;2.23;;
11228;SDS011;5671;47.936;8.716;2023-05-07T11:41:02;2.60;;;2.40;;
11228;SDS011;5671;47.936;8.716;2023-05-07T11:43:30;4.83;;;2.40;;
11228;SDS011;5671;47.936;8.716;2023-05-07T11:46:04;4.67;;;2.23;;
11228;SDS011;5671;47.936;8.716;2023-05-07T11:48:33;3.03;;;2.20;;
11228;SDS011;5671;47.936;8.716;2023-05-07T11:51:01;2.30;;;2.10;;
11228;SDS011;5671;47.936;8.716;2023-05-07T11:53:35;3.33;;;2.07;;
11228;SDS011;5671;47.936;8.716;2023-05-07T11:56:05;2.53;;;2.27;;
11228;SDS011;5671;47.936;8.716;2023-05-07T11:58:33;2.77;;;1.97;;
11228;SDS011;5671;47.936;8.716;2023-05-07T12:01:00;7.17;;;2.40;;
11228;SDS011;5671;47.936;8.716;2023-05-07T12:03:27;5.57;;;2.50;;
11228;SDS011;5671;47.936;8.716;2023-05-07T12:05:54;2.87;;;1.63;;
11228;SDS011;5671;47.936;8.716;2023-05-07T12:08:22;1.67;;;1.53;;
11228;SDS011;5671;47.936;8.716;2023-05-07T12:10:50;1.87;;;1.60;;
11228;SDS011;5671;47.936;8.716;2023-05-07T12:13:17;3.47;;;1.60;;
11228;SDS011;5671;47.936;8.716;2023-05-07T12:15:45;4.27;;;1.80;;
11228;SDS011;5671;47.936;8.716;2023-05-07T12:18:12;2.13;;;1.57;;
11228;SDS011;5671;47.936;8.716;2023-05-07T12:20:44;5.17;;;1.80;;
11228;SDS011;5671;47.936;8.716;2023-05-07T12:23:13;3.03;;;1.50;;
11228;SDS011;5671;47.936;8.716;2023-05-07T12:25:42;2.60;;;2.17;;
11228;SDS011;5671;47.936;8.716;2023-05-07T12:28:12;1.80;;;1.70;;
11228;SDS011;5671;47.936;8.716;2023-05-07T12:30:40;2.93;;;1.80;;
11228;SDS011;5671;47.936;8.716;2023-05-07T12:33:08;2.20;;;1.27;;
11228;SDS011;5671;47.936;8.716;2023-05-07T12:35:36;3.63;;;1.90;;
11228;SDS011;5671;47.936;8.716;2023-05-07T12:38:06;3.20;;;1.40;;
11228;SDS011;5671;47.936;8.716;2023-05-07T12:40:35;1.83;;;1.60;;
11228;SDS011;5671;47.936;8.716;2023-05-07T12:43:05;1.90;;;1.47;;
11228;SDS011;5671;47.936;8.716;2023-05-07T12:45:36;1.90;;;1.60;;
11228;SDS011;5671;47.936;8.716;2023-05-07T12:48:04;4.37;;;2.50;;
11228;SDS011;5671;47.936;8.716;2023-05-07T12:50:31;2.73;;;1.83;;
11228;SDS011;5671;47.936;8.716;2023-05-07T12:52:59;2.67;;;2.47;;
11228;SDS011;5671;47.936;8.716;2023-05-07T12:55:28;1.77;;;1.10;;
11228;SDS011;5671;47.936;8.716;2023-05-07T12:57:55;3.10;;;1.47;;
11228;SDS011;5671;47.936;8.716;2023-05-07T13:00:35;2.17;;;1.47;;
11228;SDS011;5671;47.936;8.716;2023-05-07T13:03:02;1.23;;;1.17;;
11228;SDS011;5671;47.936;8.716;2023-05-07T13:05:29;1.80;;;1.10;;
11228;SDS011;5671;47.936;8.716;2023-05-07T13:07:56;4.53;;;3.17;;
11228;SDS011;5671;47.936;8.716;2023-05-07T13:10:23;4.53;;;3.47;;
11228;SDS011;5671;47.936;8.716;2023-05-07T13:12:51;8.60;;;7.47;;
11228;SDS011;5671;47.936;8.716;2023-05-07T13:15:18;3.00;;;2.33;;
11228;SDS011;5671;47.936;8.716;2023-05-07T13:17:48;4.17;;;2.33;;
11228;SDS011;5671;47.936;8.716;2023-05-07T13:20:15;4.37;;;2.70;;
11228;SDS011;5671;47.936;8.716;2023-05-07T13:22:42;1.87;;;1.40;;
11228;SDS011;5671;47.936;8.716;2023-05-07T13:25:12;1.20;;;1.20;;
11228;SDS011;5671;47.936;8.716;2023-05-07T13:27:42;1.30;;;1.20;;
11228;SDS011;5671;47.936;8.716;2023-05-07T13:30:09;1.43;;;1.33;;
11228;SDS011;5671;47.936;8.716;2023-05-07T13:32:36;3.00;;;2.80;;
11228;SDS011;5671;47.936;8.716;2023-05-07T13:35:10;4.07;;;1.73;;
11228;SDS011;5671;47.936;8.716;2023-05-07T13:37:39;3.10;;;1.10;;
11228;SDS011;5671;47.936;8.716;2023-05-07T13:40:07;1.60;;;1.20;;
11228;SDS011;5671;47.936;8.716;2023-05-07T13:42:35;4.70;;;1.57;;
11228;SDS011;5671;47.936;8.716;2023-05-07T13:45:02;1.43;;;1.30;;
11228;SDS011;5671;47.936;8.716;2023-05-07T13:47:31;3.17;;;1.27;;
11228;SDS011;5671;47.936;8.716;2023-05-07T13:49:58;1.63;;;1.40;;
11228;SDS011;5671;47.936;8.716;2023-05-07T13:52:26;1.53;;;1.40;;
11228;SDS011;5671;47.936;8.716;2023-05-07T13:54:53;1.13;;;0.97;;
11228;SDS011;5671;47.936;8.716;2023-05-07T13:57:20;2.27;;;1.53;;
11228;SDS011;5671;47.936;8.716;2023-05-07T13:59:47;1.27;;;1.20;;
11228;SDS011;5671;47.936;8.716;2023-05-07T14:02:13;3.87;;;1.50;;
11228;SDS011;5671;47.936;8.716;2023-05-07T14:04:40;2.33;;;1.33;;
11228;SDS011;5671;47.936;8.716;2023-05-07T14:07:07;1.73;;;1.50;;
11228;SDS011;5671;47.936;8.716;2023-05-07T14:09:36;2.80;;;1.40;;
11228;SDS011;5671;47.936;8.716;2023-05-07T14:12:05;1.40;;;1.30;;
11228;SDS011;5671;47.936;8.716;2023-05-07T14:14:33;1.70;;;1.40;;
11228;SDS011;5671;47.936;8.716;2023-05-07T14:17:00;3.23;;;1.60;;
11228;SDS011;5671;47.936;8.716;2023-05-07T14:19:27;2.30;;;1.40;;
11228;SDS011;5671;47.936;8.716;2023-05-07T14:21:57;2.63;;;1.60;;
11228;SDS011;5671;47.936;8.716;2023-05-07T14:24:24;1.93;;;1.60;;
11228;SDS011;5671;47.936;8.716;2023-05-07T14:26:52;2.43;;;1.60;;
11228;SDS011;5671;47.936;8.716;2023-05-07T14:29:19;2.37;;;1.43;;
11228;SDS011;5671;47.936;8.716;2023-05-07T14:31:45;2.40;;;1.60;;
11228;SDS011;5671;47.936;8.716;2023-05-07T14:34:12;2.37;;;1.70;;
11228;SDS011;5671;47.936;8.716;2023-05-07T14:36:39;3.70;;;1.33;;
11228;SDS011;5671;47.936;8.716;2023-05-07T14:39:06;5.43;;;1.80;;
11228;SDS011;5671;47.936;8.716;2023-05-07T14:41:33;1.37;;;1.30;;
11228;SDS011;5671;47.936;8.716;2023-05-07T14:44:04;3.00;;;1.80;;
11228;SDS011;5671;47.936;8.716;2023-05-07T14:46:31;2.00;;;1.70;;
11228;SDS011;5671;47.936;8.716;2023-05-07T14:48:58;2.10;;;1.83;;
11228;SDS011;5671;47.936;8.716;2023-05-07T14:51:25;4.43;;;2.10;;
11228;SDS011;5671;47.936;8.716;2023-05-07T14:53:53;3.47;;;1.90;;
11228;SDS011;5671;47.936;8.716;2023-05-07T14:56:20;4.93;;;1.80;;
11228;SDS011;5671;47.936;8.716;2023-05-07T14:58:47;2.10;;;1.90;;
11228;SDS011;5671;47.936;8.716;2023-05-07T15:01:16;1.80;;;1.70;;
11228;SDS011;5671;47.936;8.716;2023-05-07T15:03:42;2.37;;;2.00;;
11228;SDS011;5671;47.936;8.716;2023-05-07T15:06:09;4.53;;;1.83;;
11228;SDS011;5671;47.936;8.716;2023-05-07T15:08:36;2.03;;;1.60;;
11228;SDS011;5671;47.936;8.716;2023-05-07T15:11:03;4.27;;;1.70;;
11228;SDS011;5671;47.936;8.716;2023-05-07T15:13:30;3.47;;;1.57;;
11228;SDS011;5671;47.936;8.716;2023-05-07T15:15:57;2.07;;;1.70;;